createdAt,value
2024-01-05T00:00:05.963Z,51.56
2024-01-05T00:01:06.058Z,51.54
2024-01-05T00:02:06.124Z,51.48
2024-01-05T00:03:06.257Z,51.45
2024-01-05T00:04:06.501Z,51.42
2024-01-05T00:05:06.384Z,51.77
2024-01-05T00:06:06.548Z,51.91
2024-01-05T00:07:06.664Z,51.99
2024-01-05T00:08:06.673Z,52.24
2024-01-05T00:09:06.813Z,52.13
2024-01-05T00:10:06.825Z,51.80
2024-01-05T00:11:06.902Z,51.65
2024-01-05T00:12:07.577Z,51.54
2024-01-05T00:13:07.228Z,51.54
2024-01-05T00:14:07.347Z,51.60
2024-01-05T00:15:07.622Z,51.78
2024-01-05T00:16:07.501Z,51.74
2024-01-05T00:17:07.586Z,51.78
2024-01-05T00:18:07.886Z,51.85
2024-01-05T00:19:07.971Z,52.06
2024-01-05T00:20:07.960Z,52.13
2024-01-05T00:21:08.034Z,51.88
2024-01-05T00:22:08.088Z,51.83
2024-01-05T00:23:08.217Z,51.93
2024-01-05T00:24:08.354Z,52.04
2024-01-05T00:25:08.424Z,52.17
2024-01-05T00:26:08.562Z,52.31
2024-01-05T00:27:08.726Z,52.36
2024-01-05T00:28:08.801Z,52.32
2024-01-05T00:29:08.966Z,52.19
2024-01-05T00:30:09.132Z,52.39
2024-01-05T00:31:09.246Z,52.36
2024-01-05T00:32:09.409Z,52.44
2024-01-05T00:33:09.456Z,52.28
2024-01-05T00:34:09.634Z,52.07
2024-01-05T00:35:09.619Z,52.01
2024-01-05T00:36:09.764Z,52.02
2024-01-05T00:37:09.851Z,52.08
2024-01-05T00:38:09.995Z,52.08
2024-01-05T00:39:10.130Z,52.11
2024-01-05T00:40:10.249Z,52.20
2024-01-05T00:41:10.342Z,52.34
2024-01-05T00:42:10.508Z,52.26
2024-01-05T00:43:10.630Z,52.20
2024-01-05T00:44:10.688Z,52.21
2024-01-05T00:45:10.836Z,52.27
2024-01-05T00:46:10.889Z,52.23
2024-01-05T00:47:11.086Z,52.34
2024-01-05T00:48:11.319Z,52.24
2024-01-05T00:49:11.324Z,52.35
2024-01-05T00:50:11.373Z,52.31
2024-01-05T00:51:11.517Z,52.35
2024-01-05T00:52:11.603Z,52.45
2024-01-05T00:53:11.728Z,52.35
2024-01-05T00:54:11.830Z,52.42
2024-01-05T00:55:11.917Z,52.39
2024-01-05T00:56:11.985Z,52.31
2024-01-05T00:57:12.196Z,52.31
2024-01-05T00:58:12.266Z,52.31
2024-01-05T00:59:12.361Z,52.29
2024-01-05T01:00:12.497Z,52.45
2024-01-05T01:01:12.664Z,52.16
2024-01-05T01:02:12.795Z,52.04
2024-01-05T01:03:12.977Z,52.28
2024-01-05T01:04:13.156Z,52.33
2024-01-05T01:05:13.231Z,52.44
2024-01-05T01:06:13.417Z,52.39
2024-01-05T01:07:13.732Z,52.59
2024-01-05T01:08:13.606Z,52.52
2024-01-05T01:09:13.792Z,52.40
2024-01-05T01:10:13.818Z,52.35
2024-01-05T01:11:13.977Z,52.44
2024-01-05T01:12:14.195Z,52.49
2024-01-05T01:13:14.269Z,52.40
2024-01-05T01:14:14.344Z,52.54
2024-01-05T01:15:14.529Z,52.26
2024-01-05T01:16:14.620Z,52.09
2024-01-05T01:17:14.802Z,52.29
2024-01-05T01:18:15.013Z,52.43
2024-01-05T01:19:15.121Z,52.39
2024-01-05T01:20:15.072Z,52.26
2024-01-05T01:21:15.227Z,52.38
2024-01-05T01:22:15.387Z,52.36
2024-01-05T01:23:15.515Z,52.37
2024-01-05T01:24:15.698Z,52.36
2024-01-05T01:25:15.789Z,52.53
2024-01-05T01:26:15.842Z,52.60
2024-01-05T01:27:16.092Z,52.71
2024-01-05T01:28:16.185Z,52.80
2024-01-05T01:29:16.301Z,52.67
2024-01-05T01:30:16.475Z,52.55
2024-01-05T01:31:17.536Z,52.50
2024-01-05T01:32:16.519Z,52.55
2024-01-05T01:33:16.833Z,52.61
2024-01-05T01:34:16.823Z,52.81
2024-01-05T01:35:16.787Z,52.87
2024-01-05T01:36:16.953Z,52.92
2024-01-05T01:37:17.000Z,53.03
2024-01-05T01:38:17.090Z,53.01
2024-01-05T01:39:17.240Z,52.99
2024-01-05T01:40:17.250Z,53.06
2024-01-05T01:41:17.364Z,53.14
2024-01-05T01:42:17.534Z,53.11
2024-01-05T01:43:17.634Z,53.21
2024-01-05T01:44:17.682Z,53.28
2024-01-05T01:45:17.796Z,53.29
2024-01-05T01:46:17.850Z,53.17
2024-01-05T01:47:17.929Z,53.39
2024-01-05T01:48:18.141Z,53.56
2024-01-05T01:49:18.226Z,53.74
2024-01-05T01:50:18.185Z,53.88
2024-01-05T01:51:18.383Z,53.97
2024-01-05T01:52:18.372Z,53.99
2024-01-05T01:53:18.473Z,53.97
2024-01-05T01:54:18.611Z,53.98
2024-01-05T01:55:18.614Z,53.97
2024-01-05T01:56:18.749Z,53.95
2024-01-05T01:57:18.888Z,54.01
2024-01-05T01:58:18.939Z,54.12
2024-01-05T01:59:19.037Z,54.08
2024-01-05T02:00:19.237Z,54.11
2024-01-05T02:01:19.225Z,54.05
2024-01-05T02:02:19.247Z,54.05
2024-01-05T02:03:19.595Z,54.16
2024-01-05T02:04:19.602Z,53.95
2024-01-05T02:05:19.571Z,53.86
2024-01-05T02:06:19.650Z,53.80
2024-01-05T02:07:19.740Z,53.83
2024-01-05T02:08:19.900Z,53.53
2024-01-05T02:09:20.070Z,53.49
2024-01-05T02:10:20.086Z,53.53
2024-01-05T02:11:20.185Z,53.57
2024-01-05T02:12:20.284Z,53.61
2024-01-05T02:13:20.379Z,53.53
2024-01-05T02:14:20.458Z,53.85
2024-01-05T02:15:20.624Z,53.88
2024-01-05T02:16:20.706Z,53.66
2024-01-05T02:17:20.853Z,53.46
2024-01-05T02:18:21.019Z,53.39
2024-01-05T02:19:21.295Z,53.35
2024-01-05T02:20:21.158Z,53.27
2024-01-05T02:21:21.296Z,53.32
2024-01-05T02:22:21.375Z,53.29
2024-01-05T02:23:21.484Z,53.05
2024-01-05T02:24:21.589Z,52.95
2024-01-05T02:25:21.660Z,52.90
2024-01-05T02:26:21.785Z,52.83
2024-01-05T02:27:21.912Z,52.82
2024-01-05T02:28:21.979Z,52.86
2024-01-05T02:29:22.097Z,52.85
2024-01-05T02:30:22.354Z,52.72
2024-01-05T02:31:22.424Z,52.69
2024-01-05T02:32:22.470Z,52.79
2024-01-05T02:33:22.782Z,52.85
2024-01-05T02:34:22.903Z,52.93
2024-01-05T02:35:22.956Z,52.99
2024-01-05T02:36:23.092Z,53.09
2024-01-05T02:37:23.159Z,53.01
2024-01-05T02:38:23.290Z,52.92
2024-01-05T02:39:23.389Z,52.98
2024-01-05T02:40:23.499Z,53.10
2024-01-05T02:41:23.560Z,53.16
2024-01-05T02:42:23.688Z,53.31
2024-01-05T02:43:23.838Z,53.32
2024-01-05T02:44:23.866Z,53.29
2024-01-05T02:45:24.086Z,53.27
2024-01-05T02:46:24.097Z,53.41
2024-01-05T02:47:24.264Z,53.59
2024-01-05T02:48:24.404Z,53.68
2024-01-05T02:49:24.478Z,53.67
2024-01-05T02:50:24.546Z,53.50
2024-01-05T02:51:24.601Z,53.40
2024-01-05T02:52:24.691Z,53.38
2024-01-05T02:53:24.828Z,53.29
2024-01-05T02:54:24.910Z,53.24
2024-01-05T02:55:25.048Z,53.18
2024-01-05T02:56:25.104Z,53.09
2024-01-05T02:57:25.524Z,53.09
2024-01-05T02:58:25.300Z,53.05
2024-01-05T02:59:25.416Z,52.99
2024-01-05T03:00:25.614Z,52.91
2024-01-05T03:01:25.745Z,52.81
2024-01-05T03:02:25.816Z,52.96
2024-01-05T03:03:26.047Z,53.00
2024-01-05T03:04:26.110Z,53.15
2024-01-05T03:05:26.199Z,53.20
2024-01-05T03:06:26.352Z,53.31
2024-01-05T03:07:26.458Z,53.28
2024-01-05T03:08:26.583Z,53.06
2024-01-05T03:09:26.748Z,53.15
2024-01-05T03:10:26.829Z,53.28
2024-01-05T03:11:27.008Z,53.19
2024-01-05T03:12:27.205Z,53.18
2024-01-05T03:13:27.319Z,53.49
2024-01-05T03:14:27.440Z,53.54
2024-01-05T03:15:27.664Z,53.45
2024-01-05T03:16:27.607Z,53.36
2024-01-05T03:17:27.825Z,53.59
2024-01-05T03:18:28.024Z,53.50
2024-01-05T03:19:28.007Z,53.44
2024-01-05T03:20:28.008Z,53.36
2024-01-05T03:21:28.191Z,53.42
2024-01-05T03:22:31.353Z,53.39
2024-01-05T03:23:28.426Z,53.40
2024-01-05T03:24:28.684Z,53.36
2024-01-05T03:25:28.605Z,53.27
2024-01-05T03:26:28.642Z,53.25
2024-01-05T03:27:28.746Z,53.28
2024-01-05T03:28:28.808Z,53.29
2024-01-05T03:29:28.880Z,53.34
2024-01-05T03:30:29.031Z,53.33
2024-01-05T03:31:29.153Z,53.50
2024-01-05T03:32:29.216Z,53.46
2024-01-05T03:33:29.290Z,53.57
2024-01-05T03:34:29.354Z,53.52
2024-01-05T03:35:29.387Z,53.46
2024-01-05T03:36:29.481Z,53.24
2024-01-05T03:37:29.577Z,53.10
2024-01-05T03:38:29.647Z,53.03
2024-01-05T03:39:29.795Z,53.07
2024-01-05T03:40:29.793Z,53.21
2024-01-05T03:41:29.910Z,53.46
2024-01-05T03:42:30.047Z,53.54
2024-01-05T03:43:30.088Z,53.42
2024-01-05T03:44:30.214Z,53.35
2024-01-05T03:45:30.337Z,53.26
2024-01-05T03:46:30.323Z,53.17
2024-01-05T03:47:30.487Z,53.08
2024-01-05T03:48:30.591Z,53.06
2024-01-05T03:49:30.623Z,52.86
2024-01-05T03:50:30.640Z,52.81
2024-01-05T03:51:30.812Z,52.78
2024-01-05T03:52:30.804Z,52.79
2024-01-05T03:53:30.929Z,52.71
2024-01-05T03:54:31.151Z,52.79
2024-01-05T03:55:31.098Z,52.90
2024-01-05T03:56:31.253Z,52.87
2024-01-05T03:57:31.529Z,52.81
2024-01-05T03:58:31.573Z,52.88
2024-01-05T03:59:31.672Z,52.95
2024-01-05T04:00:31.860Z,52.75
2024-01-05T04:01:31.961Z,52.59
2024-01-05T04:02:32.175Z,52.58
2024-01-05T04:03:32.380Z,52.78
2024-01-05T04:04:32.503Z,52.85
2024-01-05T04:05:32.494Z,53.11
2024-01-05T04:06:32.690Z,53.09
2024-01-05T04:07:32.725Z,53.09
2024-01-05T04:08:32.821Z,53.11
2024-01-05T04:09:32.977Z,53.10
2024-01-05T04:10:33.041Z,53.19
2024-01-05T04:11:33.106Z,53.14
2024-01-05T04:12:33.244Z,53.19
2024-01-05T04:13:33.305Z,53.14
2024-01-05T04:14:33.469Z,53.01
2024-01-05T04:15:35.933Z,53.01
2024-01-05T04:16:33.710Z,53.01
2024-01-05T04:17:33.814Z,53.08
2024-01-05T04:18:33.872Z,53.09
2024-01-05T04:19:34.067Z,52.99
2024-01-05T04:20:34.017Z,52.87
2024-01-05T04:21:34.226Z,52.87
2024-01-05T04:22:34.162Z,52.85
2024-01-05T04:23:34.245Z,52.81
2024-01-05T04:24:34.467Z,52.85
2024-01-05T04:25:34.418Z,52.66
2024-01-05T04:26:34.476Z,52.56
2024-01-05T04:27:34.663Z,52.72
2024-01-05T04:28:34.654Z,52.76
2024-01-05T04:29:34.743Z,52.78
2024-01-05T04:30:34.898Z,52.88
2024-01-05T04:31:34.896Z,53.03
2024-01-05T04:32:36.111Z,52.93
2024-01-05T04:33:35.153Z,52.91
2024-01-05T04:34:35.260Z,52.80
2024-01-05T04:35:35.233Z,52.65
2024-01-05T04:36:35.345Z,52.66
2024-01-05T04:37:35.367Z,52.80
2024-01-05T04:38:35.480Z,52.93
2024-01-05T04:39:35.629Z,53.02
2024-01-05T04:40:35.619Z,52.86
2024-01-05T04:41:35.722Z,52.91
2024-01-05T04:42:35.841Z,52.93
2024-01-05T04:43:35.941Z,53.17
2024-01-05T04:44:35.975Z,53.24
2024-01-05T04:45:36.068Z,53.11
2024-01-05T04:46:36.149Z,53.21
2024-01-05T04:47:36.433Z,53.33
2024-01-05T04:48:36.413Z,53.35
2024-01-05T04:49:36.466Z,53.41
2024-01-05T04:50:36.479Z,53.25
2024-01-05T04:51:36.714Z,53.17
2024-01-05T04:52:36.650Z,53.02
2024-01-05T04:53:36.716Z,52.67
2024-01-05T04:54:36.884Z,52.52
2024-01-05T04:55:36.870Z,52.56
2024-01-05T04:56:36.996Z,52.66
2024-01-05T04:57:37.190Z,52.79
2024-01-05T04:58:37.172Z,53.06
2024-01-05T04:59:37.264Z,53.12
2024-01-05T05:00:37.435Z,52.97
2024-01-05T05:01:37.443Z,52.71
2024-01-05T05:02:37.542Z,52.64
2024-01-05T05:03:37.665Z,52.74
2024-01-05T05:04:37.715Z,52.85
2024-01-05T05:05:37.906Z,53.08
2024-01-05T05:06:38.148Z,53.49
2024-01-05T05:07:38.079Z,53.65
2024-01-05T05:08:38.188Z,53.68
2024-01-05T05:09:38.374Z,53.52
2024-01-05T05:10:38.437Z,53.43
2024-01-05T05:11:38.607Z,53.48
2024-01-05T05:12:38.795Z,53.47
2024-01-05T05:13:38.843Z,53.40
2024-01-05T05:14:38.985Z,53.38
2024-01-05T05:15:39.183Z,53.29
2024-01-05T05:16:39.166Z,53.20
2024-01-05T05:17:39.324Z,53.16
2024-01-05T05:18:39.616Z,53.15
2024-01-05T05:19:39.640Z,53.15
2024-01-05T05:20:39.718Z,53.31
2024-01-05T05:21:39.887Z,53.32
2024-01-05T05:22:39.959Z,53.46
2024-01-05T05:23:40.086Z,53.63
2024-01-05T05:24:47.988Z,53.82
2024-01-05T05:25:47.991Z,53.51
2024-01-05T05:26:47.946Z,53.43
2024-01-05T05:27:47.924Z,53.49
2024-01-05T05:28:48.026Z,53.30
2024-01-05T05:29:47.922Z,53.36
2024-01-05T05:30:48.041Z,53.30
2024-01-05T05:31:48.120Z,53.02
2024-01-05T05:32:47.878Z,52.88
2024-01-05T05:33:48.014Z,52.74
2024-01-05T05:34:47.858Z,52.80
2024-01-05T05:35:47.784Z,52.88
2024-01-05T05:36:47.797Z,52.92
2024-01-05T05:37:47.772Z,53.07
2024-01-05T05:38:47.762Z,53.36
2024-01-05T05:39:47.737Z,53.28
2024-01-05T05:40:47.724Z,53.27
2024-01-05T05:41:47.735Z,53.24
2024-01-05T05:42:47.722Z,53.07
2024-01-05T05:43:47.758Z,52.99
2024-01-05T05:44:47.678Z,53.03
2024-01-05T05:45:47.698Z,52.93
2024-01-05T05:46:47.642Z,52.73
2024-01-05T05:47:47.830Z,52.76
2024-01-05T05:48:47.719Z,52.58
2024-01-05T05:49:47.810Z,52.47
2024-01-05T05:50:47.604Z,52.57
2024-01-05T05:51:47.803Z,52.52
2024-01-05T05:52:47.564Z,52.36
2024-01-05T05:53:47.603Z,52.45
2024-01-05T05:54:47.595Z,52.66
2024-01-05T05:55:47.570Z,52.59
2024-01-05T05:56:47.562Z,52.53
2024-01-05T05:57:47.559Z,52.44
2024-01-05T05:58:47.562Z,52.50
2024-01-05T05:59:47.511Z,52.33
2024-01-05T06:00:47.637Z,52.02
2024-01-05T06:02:10.166Z,51.99
2024-01-05T06:02:47.444Z,52.26
2024-01-05T06:03:47.575Z,52.08
2024-01-05T06:04:47.716Z,51.97
2024-01-05T06:05:47.462Z,51.89
2024-01-05T06:06:47.533Z,51.76
2024-01-05T06:07:47.482Z,51.81
2024-01-05T06:08:47.471Z,52.06
2024-01-05T06:09:47.488Z,51.96
2024-01-05T06:10:47.854Z,51.68
2024-01-05T06:11:47.680Z,51.48
2024-01-05T06:12:47.495Z,51.60
2024-01-05T06:13:47.411Z,51.82
2024-01-05T06:14:47.325Z,52.06
2024-01-05T06:15:47.329Z,51.90
2024-01-05T06:16:47.381Z,51.74
2024-01-05T06:17:47.437Z,51.73
2024-01-05T06:18:47.589Z,51.83
2024-01-05T06:19:47.322Z,52.02
2024-01-05T06:20:47.259Z,52.05
2024-01-05T06:21:47.575Z,52.02
2024-01-05T06:22:47.326Z,51.94
2024-01-05T06:23:47.273Z,51.77
2024-01-05T06:24:47.362Z,51.62
2024-01-05T06:25:47.393Z,51.55
2024-01-05T06:26:47.402Z,51.51
2024-01-05T06:27:47.422Z,51.49
2024-01-05T06:28:47.521Z,51.49
2024-01-05T06:29:47.514Z,51.44
2024-01-05T06:30:47.561Z,51.56
2024-01-05T06:31:47.820Z,51.70
2024-01-05T06:32:47.570Z,51.80
2024-01-05T06:33:47.724Z,52.06
2024-01-05T06:34:47.715Z,51.98
2024-01-05T06:35:47.609Z,51.86
2024-01-05T06:36:47.669Z,51.72
2024-01-05T06:37:47.673Z,51.59
2024-01-05T06:38:47.790Z,51.55
2024-01-05T06:39:47.788Z,51.23
2024-01-05T06:40:47.795Z,51.07
2024-01-05T06:41:48.729Z,51.07
2024-01-05T06:42:47.917Z,51.01
2024-01-05T06:43:47.820Z,50.87
2024-01-05T06:44:47.819Z,50.90
2024-01-05T06:45:47.916Z,50.83
2024-01-05T06:47:10.705Z,50.43
2024-01-05T06:47:48.316Z,50.68
2024-01-05T06:48:48.146Z,50.69
2024-01-05T06:49:47.989Z,50.52
2024-01-05T06:50:48.085Z,50.38
2024-01-05T06:51:48.149Z,50.23
2024-01-05T06:52:47.844Z,50.18
2024-01-05T06:53:47.899Z,49.87
2024-01-05T06:54:47.709Z,49.91
2024-01-05T06:55:48.226Z,50.15
2024-01-05T06:56:47.724Z,50.25
2024-01-05T06:57:47.746Z,50.21
2024-01-05T06:58:47.751Z,49.91
2024-01-05T06:59:47.638Z,49.76
2024-01-05T07:00:48.434Z,49.74
2024-01-05T07:01:47.864Z,49.80
2024-01-05T07:02:47.553Z,49.57
2024-01-05T07:03:47.934Z,49.15
2024-01-05T07:04:47.477Z,48.99
2024-01-05T07:05:47.442Z,49.09
2024-01-05T07:06:47.605Z,49.01
2024-01-05T07:07:47.278Z,48.86
2024-01-05T07:08:47.629Z,48.66
2024-01-05T07:09:47.789Z,48.59
2024-01-05T07:10:47.822Z,48.87
2024-01-05T07:11:47.426Z,48.97
2024-01-05T07:12:47.320Z,48.96
2024-01-05T07:13:47.364Z,48.92
2024-01-05T07:14:47.817Z,49.18
2024-01-05T07:15:47.466Z,49.02
2024-01-05T07:16:47.430Z,48.91
2024-01-05T07:17:47.902Z,48.87
2024-01-05T07:18:48.104Z,49.09
2024-01-05T07:19:47.575Z,49.20
2024-01-05T07:20:47.519Z,49.56
2024-01-05T07:21:47.620Z,49.54
2024-01-05T07:22:47.591Z,49.64
2024-01-05T07:23:47.605Z,49.70
2024-01-05T07:26:10.183Z,51.14
2024-01-05T07:26:47.618Z,50.00
2024-01-05T07:27:47.493Z,49.69
2024-01-05T07:28:47.497Z,49.74
2024-01-05T07:29:47.414Z,49.61
2024-01-05T07:30:47.535Z,49.30
2024-01-05T07:31:47.357Z,49.32
2024-01-05T07:32:47.338Z,49.52
2024-01-05T07:33:47.342Z,49.54
2024-01-05T07:34:47.266Z,49.65
2024-01-05T07:35:47.175Z,49.30
2024-01-05T07:36:47.207Z,49.24
2024-01-05T07:37:47.116Z,49.46
2024-01-05T07:38:47.070Z,49.39
2024-01-05T07:39:47.069Z,49.17
2024-01-05T07:40:47.019Z,48.95
2024-01-05T07:41:47.260Z,48.87
2024-01-05T07:42:47.030Z,48.77
2024-01-05T07:43:46.993Z,48.70
2024-01-05T07:44:47.012Z,48.94
2024-01-05T07:45:47.897Z,49.35
2024-01-05T07:46:47.116Z,49.58
2024-01-05T07:47:46.972Z,49.52
2024-01-05T07:48:47.097Z,49.28
2024-01-05T07:49:47.003Z,49.47
2024-01-05T07:50:46.889Z,49.22
2024-01-05T07:51:47.140Z,49.13
2024-01-05T07:52:46.855Z,48.87
2024-01-05T07:53:46.952Z,48.82
2024-01-05T07:54:46.870Z,48.58
2024-01-05T07:55:46.910Z,48.58
2024-01-05T07:56:46.827Z,48.50
2024-01-05T07:57:48.515Z,48.52
2024-01-05T07:58:46.815Z,48.44
2024-01-05T07:59:46.805Z,48.32
2024-01-05T08:00:46.834Z,48.11
2024-01-05T08:01:46.926Z,47.90
2024-01-05T08:02:46.746Z,47.61
2024-01-05T08:03:46.750Z,47.68
2024-01-05T08:04:46.623Z,47.97
2024-01-05T08:05:47.822Z,48.06
2024-01-05T08:06:46.569Z,47.82
2024-01-05T08:07:46.532Z,47.57
2024-01-05T08:08:46.459Z,47.23
2024-01-05T08:09:46.559Z,47.38
2024-01-05T08:10:46.473Z,47.55
2024-01-05T08:11:46.811Z,47.78
2024-01-05T08:12:46.584Z,48.15
2024-01-05T08:13:46.493Z,48.11
2024-01-05T08:14:46.477Z,47.99
2024-01-05T08:15:46.444Z,47.59
2024-01-05T08:16:46.411Z,47.25
2024-01-05T08:17:46.410Z,47.18
2024-01-05T08:18:46.442Z,47.20
2024-01-05T08:19:46.498Z,46.95
2024-01-05T08:20:46.552Z,47.24
2024-01-05T08:21:46.740Z,48.05
2024-01-05T08:22:46.305Z,48.74
2024-01-05T08:23:46.350Z,48.91
2024-01-05T08:24:46.424Z,49.07
2024-01-05T08:25:46.270Z,49.10
2024-01-05T08:26:46.259Z,48.94
2024-01-05T08:27:46.242Z,48.49
2024-01-05T08:28:46.224Z,48.30
2024-01-05T08:29:46.174Z,48.46
2024-01-05T08:30:46.168Z,48.74
2024-01-05T08:31:46.566Z,49.08
2024-01-05T08:32:46.353Z,49.00
2024-01-05T08:33:46.347Z,48.85
2024-01-05T08:34:46.278Z,48.58
2024-01-05T08:35:46.313Z,48.40
2024-01-05T08:36:46.313Z,48.40
2024-01-05T08:37:46.346Z,48.02
2024-01-05T08:38:46.488Z,47.65
2024-01-05T08:39:46.555Z,47.25
2024-01-05T08:40:46.476Z,47.30
2024-01-05T08:41:46.440Z,47.29
2024-01-05T08:42:46.435Z,47.27
2024-01-05T08:43:46.417Z,47.19
2024-01-05T08:44:46.395Z,46.96
2024-01-05T08:45:46.458Z,46.41
2024-01-05T08:46:46.416Z,46.32
2024-01-05T08:47:46.469Z,46.02
2024-01-05T08:48:46.410Z,45.83
2024-01-05T08:49:46.463Z,45.44
2024-01-05T08:50:46.351Z,44.83
2024-01-05T08:51:46.373Z,44.74
2024-01-05T08:52:46.254Z,44.81
2024-01-05T08:53:46.242Z,45.10
2024-01-05T08:54:47.438Z,45.07
2024-01-05T08:55:46.330Z,45.45
2024-01-05T08:56:46.370Z,45.55
2024-01-05T08:57:46.284Z,45.53
2024-01-05T08:58:46.191Z,45.18
2024-01-05T08:59:46.255Z,44.54
2024-01-05T09:00:46.342Z,43.73
2024-01-05T09:01:46.146Z,43.57
2024-01-05T09:02:46.117Z,43.85
2024-01-05T09:03:46.206Z,43.37
2024-01-05T09:04:46.132Z,43.30
2024-01-05T09:05:45.960Z,43.60
2024-01-05T09:06:45.945Z,43.92
2024-01-05T09:07:45.833Z,44.31
2024-01-05T09:08:45.846Z,44.75
2024-01-05T09:09:45.768Z,44.54
2024-01-05T09:10:45.745Z,44.43
2024-01-05T09:11:45.764Z,44.23
2024-01-05T09:12:45.658Z,43.98
2024-01-05T09:13:45.568Z,44.00
2024-01-05T09:14:45.547Z,44.01
2024-01-05T09:15:45.560Z,43.95
2024-01-05T09:16:45.529Z,44.10
2024-01-05T09:17:45.419Z,44.21
2024-01-05T09:18:45.468Z,44.05
2024-01-05T09:19:45.543Z,44.20
2024-01-05T09:20:45.311Z,44.54
2024-01-05T09:21:45.268Z,44.57
2024-01-05T09:22:45.111Z,44.57
2024-01-05T09:23:45.120Z,44.24
2024-01-05T09:24:45.168Z,44.56
2024-01-05T09:25:46.662Z,44.35
2024-01-05T09:26:45.034Z,44.11
2024-01-05T09:27:44.994Z,43.71
2024-01-05T09:28:46.483Z,43.54
2024-01-05T09:29:44.959Z,43.30
2024-01-05T09:30:44.995Z,43.56
2024-01-05T09:31:44.927Z,43.88
2024-01-05T09:32:44.923Z,44.21
2024-01-05T09:33:45.074Z,44.47
2024-01-05T09:34:44.807Z,44.88
2024-01-05T09:35:44.785Z,44.87
2024-01-05T09:36:44.841Z,44.97
2024-01-05T09:37:44.592Z,45.03
2024-01-05T09:38:44.611Z,44.96
2024-01-05T09:39:44.691Z,44.88
2024-01-05T09:40:44.633Z,44.60
2024-01-05T09:41:44.667Z,44.35
2024-01-05T09:42:44.602Z,44.38
2024-01-05T09:43:44.526Z,44.04
2024-01-05T09:44:44.556Z,43.96
2024-01-05T09:45:44.572Z,43.69
2024-01-05T09:46:44.461Z,43.66
2024-01-05T09:47:44.613Z,43.81
2024-01-05T09:48:48.485Z,44.28
2024-01-05T09:49:45.357Z,44.10
2024-01-05T09:50:44.867Z,44.02
2024-01-05T09:51:44.338Z,43.87
2024-01-05T09:52:44.106Z,43.53
2024-01-05T09:53:43.987Z,43.12
2024-01-05T09:54:44.036Z,42.60
2024-01-05T09:55:43.828Z,42.11
2024-01-05T09:56:43.805Z,41.91
2024-01-05T09:57:43.779Z,41.41
2024-01-05T09:58:43.636Z,40.96
2024-01-05T09:59:43.644Z,40.03
2024-01-05T10:00:43.557Z,39.42
2024-01-05T10:01:43.460Z,38.84
2024-01-05T10:02:43.463Z,38.27
2024-01-05T10:03:43.310Z,38.05
2024-01-05T10:04:43.370Z,37.15
2024-01-05T10:05:43.360Z,36.37
2024-01-05T10:06:43.201Z,35.71
2024-01-05T10:07:43.069Z,35.42
2024-01-05T10:08:43.078Z,34.62
2024-01-05T10:09:43.149Z,33.88
2024-01-05T10:10:42.990Z,33.40
2024-01-05T10:11:42.887Z,32.38
2024-01-05T10:12:42.908Z,31.64
2024-01-05T10:13:42.692Z,31.43
2024-01-05T10:14:42.699Z,30.64
2024-01-05T10:15:42.614Z,29.81
2024-01-05T10:16:42.413Z,29.35
2024-01-05T10:17:42.389Z,29.15
2024-01-05T10:18:42.439Z,29.55
2024-01-05T10:19:42.309Z,29.04
2024-01-05T10:20:42.155Z,28.57
2024-01-05T10:21:42.126Z,27.21
2024-01-05T10:22:41.949Z,26.76
2024-01-05T10:23:41.942Z,27.06
2024-01-05T10:24:41.949Z,27.24
2024-01-05T10:25:41.768Z,27.38
2024-01-05T10:26:41.588Z,27.88
2024-01-05T10:27:41.589Z,28.57
2024-01-05T10:28:41.481Z,29.24
2024-01-05T10:29:41.368Z,28.84
2024-01-05T10:30:41.362Z,29.34
2024-01-05T10:31:41.335Z,29.80
2024-01-05T10:32:41.949Z,30.22
2024-01-05T10:33:41.192Z,30.43
2024-01-05T10:34:41.129Z,30.98
2024-01-05T10:35:40.910Z,31.38
2024-01-05T10:36:40.860Z,31.77
2024-01-05T10:37:40.721Z,32.19
2024-01-05T10:38:40.815Z,32.40
2024-01-05T10:39:40.695Z,32.91
2024-01-05T10:40:40.548Z,33.40
2024-01-05T10:41:40.547Z,33.83
2024-01-05T10:42:40.478Z,33.67
2024-01-05T10:43:40.436Z,33.98
2024-01-05T10:44:40.333Z,34.56
2024-01-05T10:45:40.302Z,34.45
2024-01-05T10:46:40.147Z,34.14
2024-01-05T10:47:40.117Z,33.85
2024-01-05T10:48:40.195Z,34.71
2024-01-05T10:49:40.080Z,34.47
2024-01-05T10:50:39.880Z,34.22
2024-01-05T10:51:40.094Z,34.17
2024-01-05T10:52:39.896Z,34.42
2024-01-05T10:53:39.921Z,34.74
2024-01-05T10:54:39.825Z,34.81
2024-01-05T10:55:39.781Z,34.94
2024-01-05T10:56:39.668Z,34.82
2024-01-05T10:57:39.810Z,34.64
2024-01-05T10:58:39.634Z,34.49
2024-01-05T10:59:39.524Z,33.69
2024-01-05T11:00:39.572Z,33.54
2024-01-05T11:01:39.486Z,33.32
2024-01-05T11:02:39.407Z,33.31
2024-01-05T11:03:39.438Z,32.75
2024-01-05T11:04:39.429Z,32.18
2024-01-05T11:05:39.335Z,31.88
2024-01-05T11:06:39.248Z,31.78
2024-01-05T11:07:39.236Z,31.52
2024-01-05T11:08:39.077Z,32.15
2024-01-05T11:09:39.028Z,32.32
2024-01-05T11:10:38.936Z,31.82
2024-01-05T11:11:38.895Z,32.13
2024-01-05T11:12:38.887Z,32.31
2024-01-05T11:13:38.887Z,32.47
2024-01-05T11:14:38.748Z,32.36
2024-01-05T11:15:38.753Z,32.59
2024-01-05T11:16:38.624Z,32.86
2024-01-05T11:17:38.666Z,33.29
2024-01-05T11:18:38.682Z,32.90
2024-01-05T11:19:38.556Z,33.00
2024-01-05T11:20:38.405Z,33.29
2024-01-05T11:21:38.343Z,33.68
2024-01-05T11:22:38.263Z,33.67
2024-01-05T11:23:38.159Z,32.86
2024-01-05T11:24:38.197Z,32.51
2024-01-05T11:25:38.170Z,32.73
2024-01-05T11:26:38.084Z,32.78
2024-01-05T11:27:38.140Z,32.83
2024-01-05T11:28:38.113Z,32.51
2024-01-05T11:29:38.007Z,32.28
2024-01-05T11:30:37.974Z,32.02
2024-01-05T11:31:37.809Z,30.67
2024-01-05T11:32:37.807Z,28.61
2024-01-05T11:33:39.712Z,26.73
2024-01-05T11:34:38.032Z,26.79
2024-01-05T11:35:38.376Z,27.00
2024-01-05T11:36:37.396Z,27.75
2024-01-05T11:37:37.241Z,27.96
2024-01-05T11:38:37.140Z,27.70
2024-01-05T11:39:37.112Z,28.47
2024-01-05T11:40:37.037Z,28.52
2024-01-05T11:41:36.951Z,28.53
2024-01-05T11:42:36.855Z,29.22
2024-01-05T11:43:36.868Z,29.24
2024-01-05T11:44:36.730Z,29.88
2024-01-05T11:45:36.620Z,28.54
2024-01-05T11:46:36.520Z,26.43
2024-01-05T11:47:36.415Z,24.77
2024-01-05T11:48:37.357Z,23.50
2024-01-05T11:49:36.343Z,22.90
2024-01-05T11:50:36.021Z,22.72
2024-01-05T11:51:36.053Z,22.62
2024-01-05T11:52:35.816Z,22.40
2024-01-05T11:53:35.710Z,21.59
2024-01-05T11:54:35.472Z,20.98
2024-01-05T11:55:35.417Z,20.67
2024-01-05T11:56:35.284Z,20.10
2024-01-05T11:57:35.112Z,19.11
2024-01-05T11:58:35.015Z,18.47
2024-01-05T11:59:34.877Z,18.09
2024-01-05T12:00:34.795Z,18.02
2024-01-05T12:01:34.656Z,18.01
2024-01-05T12:02:34.544Z,17.84
2024-01-05T12:03:34.513Z,17.92
2024-01-05T12:04:34.272Z,17.15
2024-01-05T12:05:34.175Z,16.55
2024-01-05T12:06:33.977Z,16.38
2024-01-05T12:07:33.902Z,16.21
2024-01-05T12:08:33.591Z,15.71
2024-01-05T12:09:33.488Z,15.54
2024-01-05T12:10:33.312Z,14.98
2024-01-05T12:11:33.159Z,14.72
2024-01-05T12:12:33.094Z,14.92
2024-01-05T12:13:32.812Z,14.41
2024-01-05T12:14:32.694Z,14.30
2024-01-05T12:15:32.558Z,14.16
2024-01-05T12:16:32.270Z,14.17
2024-01-05T12:17:32.123Z,14.20
2024-01-05T12:18:37.319Z,14.11
2024-01-05T12:19:32.894Z,14.15
2024-01-05T12:20:31.505Z,14.05
2024-01-05T12:21:31.238Z,14.03
2024-01-05T12:22:31.120Z,13.94
2024-01-05T12:23:30.804Z,13.83
2024-01-05T12:24:30.602Z,14.25
2024-01-05T12:25:30.401Z,14.87
2024-01-05T12:26:30.100Z,15.02
2024-01-05T12:27:29.947Z,15.26
2024-01-05T12:28:29.711Z,15.22
2024-01-05T12:29:29.504Z,15.25
2024-01-05T12:30:29.409Z,15.40
2024-01-05T12:31:29.209Z,15.39
2024-01-05T12:32:28.943Z,15.08
2024-01-05T12:33:29.026Z,14.81
2024-01-05T12:34:28.607Z,14.77
2024-01-05T12:35:28.413Z,15.06
2024-01-05T12:36:28.279Z,15.10
2024-01-05T12:37:28.027Z,15.60
2024-01-05T12:38:27.828Z,16.20
2024-01-05T12:39:27.646Z,16.66
2024-01-05T12:40:27.534Z,17.17
2024-01-05T12:41:28.360Z,17.38
2024-01-05T12:42:27.279Z,17.22
2024-01-05T12:43:27.030Z,17.12
2024-01-05T12:44:26.886Z,16.84
2024-01-05T12:45:26.794Z,16.42
2024-01-05T12:46:26.540Z,16.31
2024-01-05T12:47:26.507Z,15.72
2024-01-05T12:48:26.323Z,15.85
2024-01-05T12:49:26.744Z,16.34
2024-01-05T12:50:25.964Z,16.56
2024-01-05T12:51:25.909Z,17.46
2024-01-05T12:52:25.667Z,17.96
2024-01-05T12:53:25.570Z,18.38